Time;durP1;ratioP1;P1;durP2;ratioP2;P2;SDS_P1;SDS_P2;PMS_P1;PMS_P2;Temp;Humidity;BMP_temperature;BMP_pressure;BME280_temperature;BME280_humidity;BME280_pressure;Samples;Min_cycle;Max_cycle;Signal;HPM_P1;HPM_P2
2021/08/24 00:02:03;;;;;;;1.60;1.30;;;20.00;99.90;;;;;;5050358;28;20207;-73
2021/08/24 00:04:30;;;;;;;1.77;1.48;;;20.00;99.90;;;;;;5037369;28;20193;-73
2021/08/24 00:06:56;;;;;;;2.13;1.25;;;19.90;99.90;;;;;;5032657;28;20200;-72
2021/08/24 00:09:23;;;;;;;1.95;1.30;;;19.90;99.90;;;;;;5050475;28;20733;-72
2021/08/24 00:11:50;;;;;;;1.95;1.30;;;19.90;99.90;;;;;;5051791;28;20615;-73
2021/08/24 00:14:18;;;;;;;2.60;1.40;;;19.90;99.90;;;;;;5050483;28;20587;-72
2021/08/24 00:16:44;;;;;;;2.50;1.70;;;19.80;99.90;;;;;;5048598;28;20679;-72
2021/08/24 00:19:12;;;;;;;2.28;1.33;;;19.80;99.90;;;;;;5049736;28;20268;-73
2021/08/24 00:21:39;;;;;;;1.77;1.30;;;19.80;99.90;;;;;;5051618;28;20261;-72
2021/08/24 00:24:07;;;;;;;1.65;1.20;;;19.70;99.90;;;;;;5050399;28;20245;-73
2021/08/24 00:26:34;;;;;;;1.40;1.10;;;19.70;99.90;;;;;;5050984;28;20187;-73
2021/08/24 00:29:01;;;;;;;1.25;1.08;;;19.70;99.90;;;;;;5051195;28;20196;-72
2021/08/24 00:31:29;;;;;;;1.95;1.50;;;19.70;99.90;;;;;;5045449;28;20207;-72
2021/08/24 00:33:56;;;;;;;1.67;1.25;;;19.60;99.90;;;;;;5039577;28;20611;-72
2021/08/24 00:36:23;;;;;;;1.92;1.35;;;19.60;99.90;;;;;;5051465;28;20199;-72
2021/08/24 00:38:50;;;;;;;2.10;1.30;;;19.60;99.90;;;;;;5048892;28;20219;-72
2021/08/24 00:41:18;;;;;;;2.95;1.75;;;19.60;99.90;;;;;;5050430;28;20556;-73
2021/08/24 00:43:47;;;;;;;1.60;1.30;;;19.60;99.90;;;;;;5051769;28;20245;-72
2021/08/24 00:46:26;;;;;;;1.80;1.70;;;19.60;99.90;;;;;;5044703;28;20219;-72
2021/08/24 00:48:54;;;;;;;2.40;1.50;;;19.60;99.90;;;;;;5045871;28;20191;-72
2021/08/24 00:51:25;;;;;;;1.67;1.30;;;19.50;99.90;;;;;;5051320;28;20242;-72
2021/08/24 00:53:52;;;;;;;3.70;2.30;;;19.50;99.90;;;;;;5048633;28;20589;-72
2021/08/24 00:56:19;;;;;;;2.00;1.70;;;19.50;99.90;;;;;;5051687;28;20195;-72
2021/08/24 00:58:46;;;;;;;1.95;1.52;;;19.50;99.90;;;;;;5042958;28;20634;-74
2021/08/24 01:01:13;;;;;;;2.65;1.30;;;19.50;99.90;;;;;;5050287;28;20188;-73
2021/08/24 01:03:42;;;;;;;2.50;1.10;;;19.50;99.90;;;;;;5051515;28;20714;-73
2021/08/24 01:06:18;;;;;;;1.83;1.55;;;19.40;99.90;;;;;;5050488;28;20249;-73
2021/08/24 01:08:51;;;;;;;1.42;1.10;;;19.40;99.90;;;;;;5046933;28;20211;-73
2021/08/24 01:11:24;;;;;;;2.22;1.17;;;19.40;99.90;;;;;;5050285;28;20610;-73
2021/08/24 01:14:01;;;;;;;1.95;1.52;;;19.40;99.90;;;;;;5051391;28;20246;-73
2021/08/24 01:16:37;;;;;;;1.88;1.45;;;19.30;99.90;;;;;;5046275;28;20652;-72
2021/08/24 01:19:27;;;;;;;1.73;1.50;;;19.30;99.90;;;;;;5048864;28;20306;-73
2021/08/24 01:22:18;;;;;;;1.67;1.25;;;19.30;99.90;;;;;;5040886;28;20196;-73
2021/08/24 01:24:50;;;;;;;1.65;1.23;;;19.30;99.90;;;;;;5042307;28;20249;-73
2021/08/24 01:27:31;;;;;;;2.47;1.50;;;19.20;99.90;;;;;;5052703;28;20320;-72
2021/08/24 01:30:20;;;;;;;2.42;1.65;;;19.20;99.90;;;;;;5053889;28;20206;-72
2021/08/24 01:32:59;;;;;;;2.22;1.58;;;19.20;99.90;;;;;;5039924;28;20250;-72
2021/08/24 01:36:00;;;;;;;2.15;1.27;;;19.20;99.90;;;;;;5042740;28;20194;-72
2021/08/24 01:38:30;;;;;;;3.42;1.30;;;19.10;99.90;;;;;;5038925;28;20218;-72
2021/08/24 01:41:03;;;;;;;1.50;1.25;;;19.10;99.90;;;;;;5053711;28;20199;-72
2021/08/24 01:43:39;;;;;;;2.60;1.85;;;19.10;99.90;;;;;;5054085;28;20188;-72
2021/08/24 01:46:13;;;;;;;2.72;1.33;;;19.10;99.90;;;;;;5055017;28;20195;-72
2021/08/24 01:48:43;;;;;;;1.75;1.25;;;19.10;99.90;;;;;;5047719;28;20187;-73
2021/08/24 01:51:14;;;;;;;1.63;1.30;;;19.10;99.90;;;;;;5052725;28;20188;-72
2021/08/24 01:53:48;;;;;;;1.67;1.50;;;19.10;99.90;;;;;;5053400;28;20718;-73
2021/08/24 01:56:20;;;;;;;3.63;1.70;;;19.10;99.90;;;;;;5054558;28;20241;-72
2021/08/24 01:58:51;;;;;;;2.67;1.70;;;19.10;99.90;;;;;;5053805;28;20242;-72
2021/08/24 02:01:22;;;;;;;1.98;1.40;;;19.00;99.90;;;;;;5054191;28;20214;-72
2021/08/24 02:03:52;;;;;;;1.80;1.40;;;19.00;99.90;;;;;;5048962;28;20603;-73
2021/08/24 02:06:26;;;;;;;2.10;1.55;;;19.00;99.90;;;;;;5053597;28;20195;-73
2021/08/24 02:08:58;;;;;;;1.60;1.17;;;19.00;99.90;;;;;;5050626;28;20204;-73
2021/08/24 02:11:29;;;;;;;1.80;1.50;;;18.90;99.90;;;;;;5053926;28;20660;-73
2021/08/24 02:13:59;;;;;;;1.50;1.23;;;18.90;99.90;;;;;;5053947;28;20654;-73
2021/08/24 02:16:29;;;;;;;2.13;1.85;;;18.90;99.90;;;;;;5051188;28;20196;-73
2021/08/24 02:18:59;;;;;;;1.90;1.50;;;18.90;99.90;;;;;;5049385;28;20208;-73
2021/08/24 02:21:30;;;;;;;1.30;1.13;;;18.90;99.90;;;;;;5054277;28;20225;-73
2021/08/24 02:24:03;;;;;;;1.77;1.40;;;18.80;99.90;;;;;;5052682;28;20257;-73
2021/08/24 02:26:32;;;;;;;1.50;1.40;;;18.90;99.90;;;;;;5054434;28;20262;-73
2021/08/24 02:28:59;;;;;;;2.40;1.30;;;18.90;99.90;;;;;;5053315;28;20199;-73
2021/08/24 02:31:31;;;;;;;2.38;1.50;;;18.90;99.90;;;;;;5052041;28;20203;-74
2021/08/24 02:34:06;;;;;;;1.40;1.30;;;18.80;99.90;;;;;;5048509;28;20192;-73
2021/08/24 02:36:36;;;;;;;1.60;1.30;;;18.80;99.90;;;;;;5053705;28;20199;-73
2021/08/24 02:39:07;;;;;;;1.60;1.15;;;18.80;99.90;;;;;;5049500;28;20223;-72
2021/08/24 02:41:42;;;;;;;1.70;1.48;;;18.80;99.90;;;;;;5053365;28;20187;-72
2021/08/24 02:44:13;;;;;;;2.53;1.77;;;18.70;99.90;;;;;;5052356;28;20217;-73
2021/08/24 02:46:42;;;;;;;3.58;1.45;;;18.70;99.90;;;;;;5052307;28;20254;-72
2021/08/24 02:49:12;;;;;;;1.75;1.42;;;18.70;99.90;;;;;;5053535;28;20195;-72
2021/08/24 02:51:40;;;;;;;1.55;1.20;;;18.70;99.90;;;;;;5053580;28;20229;-72
2021/08/24 02:54:15;;;;;;;2.38;1.67;;;18.70;99.90;;;;;;5046369;28;20241;-71
2021/08/24 02:56:41;;;;;;;2.67;1.27;;;18.70;99.90;;;;;;5052748;28;20202;-71
2021/08/24 02:59:08;;;;;;;1.67;1.33;;;18.60;99.90;;;;;;5051685;28;20273;-71
2021/08/24 03:01:35;;;;;;;1.80;1.20;;;18.60;99.90;;;;;;5040472;28;20321;-71
2021/08/24 03:04:02;;;;;;;2.15;1.83;;;18.60;99.90;;;;;;5037984;28;20192;-71
2021/08/24 03:06:31;;;;;;;1.40;1.30;;;18.60;99.90;;;;;;5047365;28;20203;-72
2021/08/24 03:08:59;;;;;;;3.05;1.45;;;18.60;99.90;;;;;;5051452;28;20195;-73
2021/08/24 03:11:32;;;;;;;1.52;1.17;;;18.60;99.90;;;;;;5053122;28;20245;-71
2021/08/24 03:14:03;;;;;;;2.80;1.33;;;18.50;99.90;;;;;;5053237;28;20192;-71
2021/08/24 03:16:34;;;;;;;2.10;1.48;;;18.60;99.90;;;;;;5052813;28;20218;-72
2021/08/24 03:19:05;;;;;;;1.38;1.27;;;18.50;99.90;;;;;;5051421;28;20202;-71
2021/08/24 03:21:35;;;;;;;1.67;1.50;;;18.60;99.90;;;;;;5052899;28;20659;-71
2021/08/24 03:24:04;;;;;;;2.42;1.92;;;18.50;99.90;;;;;;5042225;28;20192;-73
2021/08/24 03:26:36;;;;;;;1.50;1.40;;;18.50;99.90;;;;;;5046996;28;20203;-74
2021/08/24 03:29:08;;;;;;;2.22;1.45;;;18.50;99.90;;;;;;5051715;28;20645;-73
2021/08/24 03:31:35;;;;;;;1.65;1.27;;;18.50;99.90;;;;;;5052988;28;20656;-74
2021/08/24 03:34:01;;;;;;;1.52;1.40;;;18.40;99.90;;;;;;5050280;28;20252;-73
2021/08/24 03:36:28;;;;;;;6.88;1.70;;;18.40;99.90;;;;;;5051812;28;20245;-74
2021/08/24 03:38:55;;;;;;;1.70;1.33;;;18.40;99.90;;;;;;5051571;28;20248;-74
2021/08/24 03:41:22;;;;;;;1.90;1.30;;;18.40;99.90;;;;;;5052371;28;20279;-74
2021/08/24 03:43:50;;;;;;;2.67;1.60;;;18.40;99.90;;;;;;5052056;28;20195;-74
2021/08/24 03:46:16;;;;;;;1.60;1.30;;;18.40;99.90;;;;;;5050233;28;20188;-74
2021/08/24 03:48:43;;;;;;;1.73;1.63;;;18.40;99.90;;;;;;5040513;28;20627;-74
2021/08/24 03:51:10;;;;;;;2.53;1.80;;;18.40;99.90;;;;;;5050469;28;20330;-74
2021/08/24 03:53:37;;;;;;;2.78;1.42;;;18.30;99.90;;;;;;5050512;28;20199;-74
2021/08/24 03:56:06;;;;;;;2.67;2.08;;;18.40;99.90;;;;;;5051657;28;20253;-74
2021/08/24 03:58:33;;;;;;;1.90;1.67;;;18.30;99.90;;;;;;5036470;28;20279;-74
2021/08/24 04:01:01;;;;;;;2.40;1.55;;;18.30;99.90;;;;;;5051682;28;20211;-73
2021/08/24 04:03:28;;;;;;;2.95;1.98;;;18.30;99.90;;;;;;5045577;28;20672;-74
2021/08/24 04:05:59;;;;;;;1.52;1.30;;;18.30;99.90;;;;;;5052042;28;20241;-72
2021/08/24 04:08:26;;;;;;;2.00;1.80;;;18.20;99.90;;;;;;5048814;28;20319;-72
2021/08/24 04:10:53;;;;;;;1.85;1.73;;;18.20;99.90;;;;;;5051837;28;20261;-72
2021/08/24 04:13:20;;;;;;;2.58;1.95;;;18.30;99.90;;;;;;5051364;28;20483;-73
2021/08/24 04:15:46;;;;;;;1.73;1.55;;;18.20;99.90;;;;;;5049425;28;20196;-75
2021/08/24 04:18:15;;;;;;;2.22;2.00;;;18.20;99.90;;;;;;5051559;28;20191;-73
2021/08/24 04:20:43;;;;;;;1.80;1.42;;;18.20;99.90;;;;;;5051921;28;20320;-73
2021/08/24 04:23:15;;;;;;;2.00;1.67;;;18.20;99.90;;;;;;5048225;28;20204;-73
2021/08/24 04:25:42;;;;;;;1.90;1.70;;;18.20;99.90;;;;;;5049948;28;20191;-74
2021/08/24 04:28:08;;;;;;;2.20;1.80;;;18.10;99.90;;;;;;5051861;28;20257;-72
2021/08/24 04:30:36;;;;;;;2.00;1.50;;;18.10;99.90;;;;;;5051497;28;20249;-73
2021/08/24 04:33:03;;;;;;;3.75;1.90;;;18.10;99.90;;;;;;5047261;28;20323;-73
2021/08/24 04:35:31;;;;;;;2.20;1.70;;;18.10;99.90;;;;;;5050439;28;20549;-73
2021/08/24 04:37:58;;;;;;;1.65;1.55;;;18.10;99.90;;;;;;5049852;28;20196;-73
2021/08/24 04:40:27;;;;;;;2.55;2.15;;;18.00;99.90;;;;;;5047137;28;20219;-73
2021/08/24 04:42:54;;;;;;;2.10;1.77;;;18.10;99.90;;;;;;5051474;28;20668;-73
2021/08/24 04:45:20;;;;;;;1.98;1.52;;;18.00;99.90;;;;;;5051313;28;20241;-73
2021/08/24 04:47:47;;;;;;;2.30;2.10;;;18.00;99.90;;;;;;5044618;28;20207;-72
2021/08/24 04:50:14;;;;;;;2.28;1.77;;;18.00;99.90;;;;;;5048978;28;20195;-72
2021/08/24 04:52:42;;;;;;;2.00;1.80;;;18.00;99.90;;;;;;5051484;28;20188;-72
2021/08/24 04:55:10;;;;;;;1.70;1.60;;;18.00;99.90;;;;;;5048800;28;20233;-72
2021/08/24 04:57:36;;;;;;;3.22;1.77;;;18.00;99.90;;;;;;5051199;28;20198;-73
2021/08/24 05:00:05;;;;;;;2.20;2.00;;;18.00;99.90;;;;;;5050446;28;20223;-73
2021/08/24 05:02:31;;;;;;;4.43;1.98;;;18.00;99.90;;;;;;5038459;28;20196;-73
2021/08/24 05:04:58;;;;;;;1.83;1.42;;;18.00;99.90;;;;;;5050820;28;20648;-72
2021/08/24 05:07:25;;;;;;;2.42;1.80;;;18.00;99.90;;;;;;5055355;28;20195;-73
2021/08/24 05:09:53;;;;;;;2.85;2.63;;;18.00;99.90;;;;;;5038607;28;20207;-72
2021/08/24 05:12:19;;;;;;;2.15;1.92;;;17.90;99.90;;;;;;5052982;28;20250;-73
2021/08/24 05:14:46;;;;;;;2.20;1.75;;;17.90;99.90;;;;;;5054777;28;20218;-73
2021/08/24 05:17:13;;;;;;;2.50;1.70;;;17.90;99.90;;;;;;5055076;28;20196;-73
2021/08/24 05:19:39;;;;;;;2.17;1.83;;;17.90;99.90;;;;;;5035437;28;20224;-73
2021/08/24 05:22:06;;;;;;;1.85;1.60;;;18.00;99.90;;;;;;5050570;28;20195;-73
2021/08/24 05:24:34;;;;;;;3.60;2.20;;;18.00;99.90;;;;;;5052532;28;20204;-73
2021/08/24 05:27:03;;;;;;;1.50;1.40;;;18.00;99.90;;;;;;5055236;28;20294;-73
2021/08/24 05:29:30;;;;;;;1.67;1.52;;;18.00;99.90;;;;;;5054799;28;20606;-73
2021/08/24 05:31:57;;;;;;;1.60;1.50;;;18.00;99.90;;;;;;5045066;28;20254;-73
2021/08/24 05:34:23;;;;;;;2.00;1.52;;;18.00;99.90;;;;;;5048447;28;20238;-73
2021/08/24 05:36:50;;;;;;;3.20;2.10;;;18.00;99.90;;;;;;5054186;28;20196;-73
2021/08/24 05:39:17;;;;;;;2.60;1.40;;;18.00;99.90;;;;;;5043550;28;20242;-73
2021/08/24 05:41:43;;;;;;;2.03;1.88;;;18.00;99.90;;;;;;5054687;28;20244;-73
2021/08/24 05:44:11;;;;;;;3.75;2.05;;;18.00;99.90;;;;;;5054495;28;20191;-73
2021/08/24 05:46:38;;;;;;;2.60;1.70;;;18.00;99.90;;;;;;5054213;28;20218;-73
2021/08/24 05:49:06;;;;;;;3.30;2.40;;;18.00;99.90;;;;;;5051219;28;20249;-73
2021/08/24 05:51:33;;;;;;;2.17;1.95;;;18.00;99.90;;;;;;5054019;28;20845;-73
2021/08/24 05:53:59;;;;;;;2.40;2.20;;;18.00;99.90;;;;;;5053243;28;20196;-73
2021/08/24 05:56:28;;;;;;;2.83;1.90;;;18.10;99.90;;;;;;5051621;28;20196;-73
2021/08/24 05:58:55;;;;;;;3.55;2.75;;;18.10;99.90;;;;;;5052945;28;20195;-73
2021/08/24 06:01:24;;;;;;;2.67;2.15;;;18.30;99.90;;;;;;5049752;28;20216;-72
2021/08/24 06:03:51;;;;;;;2.78;2.50;;;18.50;99.90;;;;;;5054765;28;20245;-72
2021/08/24 06:06:21;;;;;;;2.20;2.00;;;18.80;99.90;;;;;;5052616;28;20776;-73
2021/08/24 06:08:47;;;;;;;2.80;2.53;;;18.90;99.90;;;;;;5045750;28;20564;-72
2021/08/24 06:11:19;;;;;;;2.90;2.70;;;18.90;99.90;;;;;;5053692;28;20203;-73
2021/08/24 06:13:46;;;;;;;2.80;2.00;;;18.80;99.90;;;;;;5053399;28;20202;-72
2021/08/24 06:16:13;;;;;;;3.83;2.47;;;18.90;99.90;;;;;;5050298;28;20602;-72
2021/08/24 06:18:41;;;;;;;5.50;2.35;;;19.00;99.90;;;;;;5053854;28;20500;-72
2021/08/24 06:21:08;;;;;;;4.43;2.50;;;19.10;99.90;;;;;;5052970;28;20219;-72
2021/08/24 06:23:34;;;;;;;5.13;2.58;;;19.30;99.90;;;;;;5050767;28;20321;-73
2021/08/24 06:26:01;;;;;;;12.35;3.75;;;19.40;99.90;;;;;;5052402;28;20269;-72
2021/08/24 06:28:28;;;;;;;8.35;3.60;;;19.60;99.90;;;;;;5054247;28;20211;-73
2021/08/24 06:30:55;;;;;;;11.65;3.70;;;19.70;99.90;;;;;;5053966;28;20615;-73
2021/08/24 06:33:26;;;;;;;7.32;3.55;;;19.80;99.90;;;;;;5048983;28;20207;-72
2021/08/24 06:35:54;;;;;;;16.00;4.18;;;20.00;99.90;;;;;;5053596;28;20195;-72
2021/08/24 06:38:21;;;;;;;7.80;3.17;;;20.10;99.90;;;;;;5048333;28;20223;-72
2021/08/24 06:40:48;;;;;;;8.27;3.95;;;20.20;99.90;;;;;;5033801;28;20224;-72
2021/08/24 06:43:15;;;;;;;10.13;3.35;;;20.30;99.90;;;;;;5042423;28;20533;-72
2021/08/24 06:45:42;;;;;;;6.32;3.67;;;20.50;99.90;;;;;;5052169;28;20270;-72
2021/08/24 06:48:09;;;;;;;5.50;3.17;;;20.50;99.90;;;;;;5047873;28;20199;-72
2021/08/24 06:50:37;;;;;;;4.60;2.60;;;20.60;99.90;;;;;;5053342;28;20249;-72
2021/08/24 06:53:05;;;;;;;8.10;3.05;;;20.80;99.90;;;;;;5051742;28;20520;-72
2021/08/24 06:55:32;;;;;;;9.15;3.13;;;20.80;99.90;;;;;;5052030;28;20187;-72
2021/08/24 06:57:59;;;;;;;9.27;2.65;;;20.90;99.90;;;;;;5052124;28;20192;-73
2021/08/24 07:00:28;;;;;;;8.38;2.97;;;21.00;99.90;;;;;;5052926;28;20212;-72
2021/08/24 07:02:56;;;;;;;4.95;2.90;;;21.10;99.90;;;;;;5051931;28;20191;-73
2021/08/24 07:05:24;;;;;;;7.15;2.83;;;21.10;99.90;;;;;;5052621;28;20182;-73
2021/08/24 07:07:51;;;;;;;5.93;2.70;;;21.20;99.90;;;;;;5051990;28;20245;-74
2021/08/24 07:10:20;;;;;;;5.88;2.70;;;21.30;99.90;;;;;;5051476;28;20200;-72
2021/08/24 07:12:47;;;;;;;6.15;3.20;;;21.30;99.90;;;;;;5053005;28;20192;-73
2021/08/24 07:15:17;;;;;;;6.45;2.75;;;21.40;99.90;;;;;;5052104;28;20261;-73
2021/08/24 07:17:45;;;;;;;3.53;2.25;;;21.50;99.90;;;;;;5050910;28;20192;-73
2021/08/24 07:20:15;;;;;;;3.55;2.42;;;21.50;99.90;;;;;;5052401;28;20265;-74
2021/08/24 07:22:42;;;;;;;2.53;1.90;;;21.60;99.90;;;;;;5051542;28;20195;-74
2021/08/24 07:25:13;;;;;;;4.13;1.67;;;21.70;99.90;;;;;;5043628;28;20253;-74
2021/08/24 07:27:42;;;;;;;2.57;2.00;;;21.80;99.90;;;;;;5049656;28;20470;-74
2021/08/24 07:30:10;;;;;;;4.20;1.90;;;21.80;99.90;;;;;;5052758;28;20434;-72
2021/08/24 07:32:37;;;;;;;3.90;2.30;;;21.90;99.90;;;;;;5048247;28;20195;-74
2021/08/24 07:35:06;;;;;;;3.60;2.20;;;22.00;99.90;;;;;;5052072;28;20449;-73
2021/08/24 07:37:33;;;;;;;3.17;2.30;;;22.00;99.90;;;;;;5050551;28;20499;-73
2021/08/24 07:40:00;;;;;;;2.53;2.33;;;22.10;99.90;;;;;;5042393;28;20211;-73
2021/08/24 07:42:26;;;;;;;3.63;1.97;;;22.20;99.90;;;;;;5050786;28;20603;-72
2021/08/24 07:44:54;;;;;;;4.10;2.10;;;22.20;99.90;;;;;;5051524;28;21275;-72
2021/08/24 07:47:21;;;;;;;12.53;2.90;;;22.20;99.90;;;;;;5052133;28;20468;-72
2021/08/24 07:49:48;;;;;;;3.93;1.60;;;22.30;99.90;;;;;;5046634;28;20546;-72
2021/08/24 07:52:15;;;;;;;7.03;2.37;;;22.30;99.90;;;;;;5051357;28;20462;-74
2021/08/24 07:54:42;;;;;;;13.90;3.77;;;22.40;99.90;;;;;;5050352;28;20461;-72
2021/08/24 07:57:09;;;;;;;7.03;2.20;;;22.40;99.90;;;;;;5049313;28;20464;-73
2021/08/24 07:59:36;;;;;;;11.73;3.60;;;22.40;99.90;;;;;;5048376;28;20471;-73
2021/08/24 08:02:04;;;;;;;8.10;2.97;;;22.50;99.90;;;;;;5041381;28;20489;-73
2021/08/24 08:04:31;;;;;;;7.77;2.80;;;22.50;99.90;;;;;;5049927;28;21021;-73
2021/08/24 08:06:58;;;;;;;9.07;3.07;;;22.50;99.90;;;;;;5051741;28;20442;-73
2021/08/24 08:09:24;;;;;;;13.30;3.60;;;22.60;99.90;;;;;;5039040;28;21213;-73
2021/08/24 08:11:52;;;;;;;4.90;2.50;;;22.60;99.90;;;;;;5048571;28;20977;-73
2021/08/24 08:14:19;;;;;;;4.20;1.97;;;22.60;99.90;;;;;;5052035;28;20496;-73
2021/08/24 08:16:46;;;;;;;5.03;2.30;;;22.70;99.90;;;;;;5050620;28;20507;-73
2021/08/24 08:19:14;;;;;;;6.13;1.90;;;22.70;99.90;;;;;;5033297;28;20464;-73
2021/08/24 08:21:42;;;;;;;5.03;2.80;;;22.70;99.90;;;;;;5048559;28;20519;-73
2021/08/24 08:24:09;;;;;;;6.17;2.70;;;22.70;99.90;;;;;;5042890;28;20466;-73
2021/08/24 08:26:36;;;;;;;10.57;2.60;;;22.80;99.90;;;;;;5048996;28;20803;-73
2021/08/24 08:29:06;;;;;;;10.40;3.30;;;22.80;99.90;;;;;;5050720;28;20473;-73
2021/08/24 08:31:34;;;;;;;11.77;3.00;;;22.80;99.90;;;;;;5051023;28;20805;-73
2021/08/24 08:34:01;;;;;;;4.67;2.00;;;22.80;99.90;;;;;;5049572;28;20453;-73
2021/08/24 08:36:29;;;;;;;6.63;2.30;;;22.80;99.90;;;;;;5050855;28;20442;-73
2021/08/24 08:38:56;;;;;;;5.10;2.77;;;22.80;99.90;;;;;;5048225;28;20469;-73
2021/08/24 08:41:31;;;;;;;18.83;3.40;;;22.80;99.90;;;;;;5049653;28;20474;-73
2021/08/24 08:44:02;;;;;;;7.23;2.33;;;22.90;99.90;;;;;;5051343;28;20496;-73
2021/08/24 08:46:39;;;;;;;3.63;1.50;;;22.80;99.90;;;;;;5049035;28;20442;-72
2021/08/24 08:49:20;;;;;;;6.63;1.63;;;22.80;99.90;;;;;;5034301;28;20443;-73
2021/08/24 08:51:59;;;;;;;3.93;2.10;;;22.90;99.90;;;;;;5040959;28;20575;-81
2021/08/24 08:54:48;;;;;;;2.73;1.40;;;22.80;99.90;;;;;;5049521;28;20481;-79
2021/08/24 08:57:20;;;;;;;3.87;2.00;;;22.80;99.90;;;;;;5046536;28;20441;-74
2021/08/24 08:59:50;;;;;;;2.83;1.80;;;22.90;99.90;;;;;;5048145;28;20516;-74
2021/08/24 09:02:29;;;;;;;2.57;1.80;;;22.90;99.90;;;;;;5050769;28;20478;-73
2021/08/24 09:04:57;;;;;;;3.30;1.70;;;22.90;99.90;;;;;;5048908;28;20458;-73
2021/08/24 09:07:31;;;;;;;3.30;1.50;;;22.90;99.90;;;;;;5048194;28;20878;-72
2021/08/24 09:09:58;;;;;;;1.50;1.40;;;22.80;99.90;;;;;;5049811;28;21005;-72
2021/08/24 09:12:29;;;;;;;2.20;1.83;;;22.90;99.90;;;;;;5050307;28;20515;-72
2021/08/24 09:15:00;;;;;;;2.27;1.77;;;22.90;99.90;;;;;;5050977;28;20446;-73
2021/08/24 09:17:31;;;;;;;2.47;1.80;;;22.80;99.90;;;;;;5048128;28;20456;-73
2021/08/24 09:20:02;;;;;;;5.70;1.60;;;22.80;99.90;;;;;;5051420;28;20464;-73
2021/08/24 09:22:30;;;;;;;2.33;1.67;;;22.80;99.90;;;;;;5051020;28;20486;-73
2021/08/24 09:24:57;;;;;;;2.00;1.67;;;22.80;99.90;;;;;;5033623;28;20461;-73
2021/08/24 09:27:38;;;;;;;8.47;1.67;;;22.80;99.90;;;;;;5039847;28;20512;-73
2021/08/24 09:30:06;;;;;;;7.40;1.90;;;22.80;99.90;;;;;;5050172;28;20446;-73
2021/08/24 09:32:33;;;;;;;2.20;1.30;;;22.80;99.90;;;;;;5045689;28;20451;-73
2021/08/24 09:35:10;;;;;;;3.53;1.57;;;22.80;99.90;;;;;;5031273;28;20434;-73
2021/08/24 09:37:40;;;;;;;3.00;1.73;;;22.80;99.90;;;;;;5050033;28;20943;-72
2021/08/24 09:40:08;;;;;;;7.00;1.77;;;22.80;99.90;;;;;;5047219;28;20869;-73
2021/08/24 09:42:40;;;;;;;3.30;2.33;;;22.70;99.90;;;;;;5050350;28;20470;-73
2021/08/24 09:45:24;;;;;;;2.43;2.03;;;22.70;99.90;;;;;;5050804;28;20508;-72
2021/08/24 09:48:07;;;;;;;1.73;1.40;;;22.60;99.80;;;;;;5048849;28;20461;-73
2021/08/24 09:50:35;;;;;;;2.23;1.50;;;22.50;99.90;;;;;;5050632;28;20441;-73
2021/08/24 09:53:05;;;;;;;2.20;1.50;;;22.40;99.80;;;;;;5051678;28;20515;-73
2021/08/24 09:55:37;;;;;;;2.07;1.10;;;22.40;99.90;;;;;;5054712;28;20477;-72
2021/08/24 09:58:06;;;;;;;2.10;1.43;;;22.40;99.90;;;;;;5053131;28;20450;-73
2021/08/24 10:00:40;;;;;;;2.43;1.67;;;22.40;99.90;;;;;;5053127;28;20453;-73
2021/08/24 10:03:21;;;;;;;2.47;1.63;;;22.40;99.90;;;;;;5049867;28;20526;-73
2021/08/24 10:05:48;;;;;;;3.13;1.60;;;22.40;99.90;;;;;;5053563;28;20536;-73
2021/08/24 10:08:34;;;;;;;2.00;1.50;;;22.40;99.90;;;;;;5053122;28;20462;-73
2021/08/24 10:11:07;;;;;;;2.37;1.93;;;22.40;99.90;;;;;;5053970;28;20442;-73
2021/08/24 10:13:36;;;;;;;2.30;1.50;;;22.40;99.90;;;;;;5052674;28;20511;-73
2021/08/24 10:16:10;;;;;;;3.20;1.30;;;22.40;99.90;;;;;;5052767;28;20501;-73
2021/08/24 10:18:37;;;;;;;1.77;1.50;;;22.30;99.90;;;;;;5052386;28;20955;-73
2021/08/24 10:21:06;;;;;;;1.90;1.50;;;22.30;99.90;;;;;;5051674;28;20535;-73
2021/08/24 10:23:39;;;;;;;2.20;1.60;;;22.30;99.90;;;;;;5047961;28;20462;-72
2021/08/24 10:26:09;;;;;;;2.03;1.50;;;22.20;99.90;;;;;;5054058;28;20423;-73
2021/08/24 10:28:40;;;;;;;1.73;1.20;;;22.20;99.80;;;;;;5053761;28;20500;-73
2021/08/24 10:31:28;;;;;;;3.20;1.10;;;22.20;99.90;;;;;;5052298;28;20512;-73
2021/08/24 10:33:58;;;;;;;2.90;2.00;;;22.20;99.90;;;;;;5038836;28;20857;-73
2021/08/24 10:36:30;;;;;;;2.40;1.80;;;22.20;99.90;;;;;;5052513;28;20453;-72
2021/08/24 10:38:59;;;;;;;3.20;1.73;;;22.20;99.90;;;;;;5049757;28;20466;-73
2021/08/24 10:41:36;;;;;;;2.30;1.90;;;22.20;99.90;;;;;;5048029;28;20466;-74
2021/08/24 10:44:14;;;;;;;2.40;1.63;;;22.20;99.90;;;;;;5047765;28;20449;-74
2021/08/24 10:47:04;;;;;;;4.43;1.70;;;22.10;99.90;;;;;;5052709;28;20822;-75
2021/08/24 10:49:32;;;;;;;1.90;1.30;;;22.10;99.90;;;;;;5046768;28;20962;-75
2021/08/24 10:52:12;;;;;;;1.50;1.27;;;22.10;99.90;;;;;;5043903;28;20442;-75
2021/08/24 10:55:01;;;;;;;1.63;1.23;;;22.10;99.80;;;;;;5036679;28;20512;-74
2021/08/24 10:57:55;;;;;;;2.13;1.50;;;22.10;99.90;;;;;;5051098;28;20462;-74
2021/08/24 11:00:43;;;;;;;2.77;1.60;;;22.10;99.90;;;;;;5049133;28;20520;-74
2021/08/24 11:03:42;;;;;;;1.65;1.42;;;22.10;99.90;;;;;;5043885;28;20531;-74
2021/08/24 11:06:19;;;;;;;2.63;1.53;;;22.10;99.90;;;;;;5044427;28;20556;-74
2021/08/24 11:08:54;;;;;;;2.47;1.63;;;22.10;99.90;;;;;;5051532;28;20469;-74
2021/08/24 11:11:29;;;;;;;2.17;1.65;;;22.00;99.90;;;;;;5052577;28;20454;-74
2021/08/24 11:14:02;;;;;;;1.43;1.27;;;22.00;99.90;;;;;;5053107;28;20250;-74
2021/08/24 11:16:41;;;;;;;3.47;1.57;;;22.00;99.90;;;;;;5052318;28;20966;-74
2021/08/24 11:19:17;;;;;;;2.85;1.92;;;22.00;99.90;;;;;;5039191;28;20866;-74
2021/08/24 11:21:48;;;;;;;5.95;2.45;;;22.00;99.90;;;;;;5051262;28;20626;-73
2021/08/24 11:24:24;;;;;;;1.97;1.30;;;22.00;99.90;;;;;;5045243;28;20241;-74
2021/08/24 11:26:58;;;;;;;2.22;1.50;;;22.00;99.90;;;;;;5045857;28;20515;-74
2021/08/24 11:29:29;;;;;;;6.30;1.70;;;22.00;99.40;;;;;;5056418;28;20559;-73
2021/08/24 11:32:02;;;;;;;1.60;1.10;;;22.00;99.90;;;;;;5050696;28;20199;-74
2021/08/24 11:34:34;;;;;;;1.75;1.33;;;22.00;99.30;;;;;;5049341;28;20782;-75
2021/08/24 11:37:05;;;;;;;1.65;1.20;;;22.00;99.60;;;;;;5050372;28;20212;-73
2021/08/24 11:39:41;;;;;;;2.15;1.58;;;22.00;99.90;;;;;;5038581;28;20200;-74
2021/08/24 11:42:13;;;;;;;1.60;1.10;;;21.90;99.10;;;;;;5044992;28;20269;-74
2021/08/24 11:44:43;;;;;;;1.40;1.20;;;21.90;99.00;;;;;;5052110;28;20789;-74
2021/08/24 11:47:13;;;;;;;2.25;1.55;;;21.90;99.50;;;;;;5047823;28;20835;-74
2021/08/24 11:49:46;;;;;;;1.90;1.33;;;21.90;99.60;;;;;;5049718;28;20199;-74
2021/08/24 11:52:20;;;;;;;1.50;1.30;;;21.90;99.90;;;;;;5032576;28;20447;-74
2021/08/24 11:54:54;;;;;;;1.88;1.48;;;21.90;99.90;;;;;;5049554;28;20606;-74
2021/08/24 11:57:31;;;;;;;3.60;1.57;;;21.80;99.90;;;;;;5051722;28;20195;-74
2021/08/24 11:59:57;;;;;;;1.77;1.35;;;21.80;99.90;;;;;;5050090;28;20461;-74
2021/08/24 12:02:26;;;;;;;4.85;2.10;;;21.90;99.90;;;;;;5043375;28;20220;-74
2021/08/24 12:04:55;;;;;;;2.50;1.80;;;21.80;99.60;;;;;;5045388;28;20187;-74
2021/08/24 12:07:30;;;;;;;2.73;2.20;;;21.80;99.90;;;;;;5051134;28;20227;-74
2021/08/24 12:09:57;;;;;;;4.57;1.70;;;21.80;99.90;;;;;;5041043;28;20986;-74
2021/08/24 12:12:50;;;;;;;2.55;1.40;;;21.80;99.90;;;;;;5051002;28;20495;-75
2021/08/24 12:15:32;;;;;;;3.28;1.50;;;21.80;99.30;;;;;;5032314;28;20200;-74
2021/08/24 12:18:20;;;;;;;1.23;1.00;;;21.80;99.60;;;;;;5047629;28;20200;-74
2021/08/24 12:20:50;;;;;;;3.45;1.67;;;21.80;99.90;;;;;;5049250;28;20273;-73
2021/08/24 12:23:33;;;;;;;1.90;1.23;;;21.80;99.80;;;;;;5050240;28;20378;-73
2021/08/24 12:25:59;;;;;;;1.90;1.60;;;21.80;99.90;;;;;;5046601;28;20187;-73
2021/08/24 12:28:39;;;;;;;2.05;1.60;;;21.80;99.90;;;;;;5046098;28;20250;-72
2021/08/24 12:31:20;;;;;;;2.25;1.63;;;21.80;99.90;;;;;;5042116;28;20290;-72
2021/08/24 12:33:47;;;;;;;2.60;1.27;;;21.80;99.90;;;;;;5046508;28;20196;-73
2021/08/24 12:36:45;;;;;;;2.47;1.70;;;21.80;99.70;;;;;;5051830;28;20333;-72
2021/08/24 12:39:40;;;;;;;2.03;1.60;;;21.80;99.90;;;;;;5016663;28;20209;-72
2021/08/24 12:42:23;;;;;;;1.60;1.20;;;21.80;99.90;;;;;;5044208;28;20191;-72
2021/08/24 12:45:10;;;;;;;3.85;1.77;;;21.80;99.10;;;;;;5050245;28;20564;-73
2021/08/24 12:47:46;;;;;;;2.85;1.80;;;21.80;99.70;;;;;;5043572;28;20668;-73
2021/08/24 12:50:46;;;;;;;2.97;1.50;;;21.80;99.90;;;;;;5050899;28;20199;-73
2021/08/24 12:53:46;;;;;;;5.40;1.37;;;21.80;99.80;;;;;;5049763;28;20195;-73
2021/08/24 12:56:39;;;;;;;1.65;1.35;;;21.80;99.90;;;;;;5055382;28;20454;-73
2021/08/24 12:59:06;;;;;;;2.47;1.52;;;21.80;96.70;;;;;;5049804;28;20677;-73
2021/08/24 13:01:38;;;;;;;2.70;1.40;;;21.80;96.40;;;;;;5047689;28;20203;-72
2021/08/24 13:04:15;;;;;;;3.47;1.60;;;21.80;97.90;;;;;;5051140;28;20564;-74
2021/08/24 13:06:43;;;;;;;2.50;1.83;;;21.80;98.90;;;;;;5049159;28;20619;-72